createdAt,value
2018-06-03T00:00:12.165Z,21.10
2018-06-03T00:02:40.424Z,21.10
2018-06-03T00:05:08.686Z,21.00
2018-06-03T00:07:36.183Z,21.00
2018-06-03T00:10:04.457Z,21.10
2018-06-03T00:12:32.737Z,21.00
2018-06-03T00:15:00.997Z,21.00
2018-06-03T00:17:28.485Z,21.00
2018-06-03T00:19:56.765Z,21.00
2018-06-03T00:22:31.775Z,21.00
2018-06-03T00:25:00.061Z,20.90
2018-06-03T00:27:28.333Z,20.90
2018-06-03T00:29:56.589Z,20.90
2018-06-03T00:32:25.609Z,20.90
2018-06-03T00:34:53.868Z,20.90
2018-06-03T00:37:22.164Z,20.90
2018-06-03T00:39:50.434Z,20.90
2018-06-03T00:42:18.693Z,20.80
2018-06-03T00:44:46.953Z,20.70
2018-06-03T00:47:14.457Z,20.80
2018-06-03T00:49:42.727Z,20.70
2018-06-03T00:52:10.998Z,20.70
2018-06-03T00:54:39.277Z,20.70
2018-06-03T00:57:09.378Z,20.60
2018-06-03T00:59:36.883Z,20.60
2018-06-03T01:02:04.385Z,20.60
2018-06-03T01:04:32.645Z,20.50
2018-06-03T01:07:00.133Z,20.50
2018-06-03T01:09:27.626Z,20.50
2018-06-03T01:11:55.122Z,20.50
2018-06-03T01:14:22.625Z,20.40
2018-06-03T01:16:50.891Z,20.30
2018-06-03T01:19:19.150Z,20.30
2018-06-03T01:21:46.656Z,20.30
2018-06-03T01:24:14.161Z,20.30
2018-06-03T01:26:41.649Z,20.30
2018-06-03T01:29:09.909Z,20.20
2018-06-03T01:31:37.412Z,20.20
2018-06-03T01:34:04.933Z,20.20
2018-06-03T01:36:33.209Z,20.10
2018-06-03T01:39:01.473Z,20.10
2018-06-03T01:41:29.750Z,20.00
2018-06-03T01:43:58.749Z,20.00
2018-06-03T01:46:26.242Z,20.00
2018-06-03T01:48:53.750Z,20.00
2018-06-03T01:51:21.258Z,19.90
2018-06-03T01:53:48.753Z,19.90
2018-06-03T01:56:16.241Z,19.90
2018-06-03T01:58:43.737Z,19.90
2018-06-03T02:01:11.257Z,19.90
2018-06-03T02:03:38.761Z,19.90
2018-06-03T02:06:06.261Z,19.90
2018-06-03T02:08:34.522Z,19.90
2018-06-03T02:11:02.062Z,19.90
2018-06-03T02:13:29.569Z,20.00
2018-06-03T02:15:57.063Z,20.00
2018-06-03T02:18:24.566Z,20.00
2018-06-03T02:20:53.575Z,20.00
2018-06-03T02:23:21.079Z,20.00
2018-06-03T02:25:48.573Z,20.00
2018-06-03T02:28:56.821Z,20.10
2018-06-03T02:31:25.262Z,20.10
2018-06-03T02:33:53.706Z,20.10
2018-06-03T02:36:22.178Z,20.20
2018-06-03T02:38:50.622Z,20.10
2018-06-03T02:41:19.338Z,20.10
2018-06-03T02:43:47.797Z,20.10
2018-06-03T02:46:16.298Z,20.10
2018-06-03T02:48:44.778Z,20.00
2018-06-03T02:53:41.415Z,20.00
2018-06-03T02:56:09.854Z,20.10
2018-06-03T02:58:38.310Z,20.10
2018-06-03T03:01:06.766Z,20.10
2018-06-03T03:06:03.454Z,20.10
2018-06-03T03:08:31.908Z,20.10
2018-06-03T03:11:00.378Z,20.10
2018-06-03T03:13:28.857Z,20.00
2018-06-03T03:18:25.473Z,20.00
2018-06-03T03:20:53.917Z,20.00
2018-06-03T03:23:22.461Z,20.00
2018-06-03T03:25:50.901Z,20.00
2018-06-03T03:28:19.402Z,20.00
2018-06-03T03:30:47.858Z,20.00
2018-06-03T03:33:16.294Z,20.00
2018-06-03T03:35:44.749Z,20.00
2018-06-03T03:38:13.302Z,20.10
2018-06-03T03:40:41.762Z,20.10
2018-06-03T03:43:10.246Z,20.20
2018-06-03T03:45:38.678Z,20.20
2018-06-03T03:48:07.123Z,20.20
2018-06-03T03:50:35.889Z,20.20
2018-06-03T03:53:04.390Z,20.20
2018-06-03T03:55:32.865Z,20.30
2018-06-03T03:58:01.297Z,20.30
2018-06-03T04:00:29.741Z,20.30
2018-06-03T04:02:58.215Z,20.40
2018-06-03T04:05:26.698Z,20.40
2018-06-03T04:07:55.181Z,20.50
2018-06-03T04:10:23.652Z,20.50
2018-06-03T04:12:52.097Z,20.50
2018-06-03T04:15:20.525Z,20.60
2018-06-03T04:17:49.000Z,20.60
2018-06-03T04:20:17.449Z,20.70
2018-06-03T04:22:45.906Z,20.70
2018-06-03T04:25:14.352Z,20.70
2018-06-03T04:27:42.837Z,20.80
2018-06-03T04:30:11.264Z,20.80
2018-06-03T04:32:39.708Z,20.90
2018-06-03T04:35:08.153Z,21.00
2018-06-03T04:37:36.597Z,21.10
2018-06-03T04:40:05.075Z,21.10
2018-06-03T04:42:33.513Z,21.10
2018-06-03T04:45:01.966Z,21.10
2018-06-03T04:47:30.449Z,21.00
2018-06-03T04:49:58.905Z,21.00
2018-06-03T04:54:55.578Z,21.20
2018-06-03T04:57:24.082Z,21.10
2018-06-03T04:59:52.551Z,21.20
2018-06-03T05:02:21.002Z,21.20
2018-06-03T05:04:49.453Z,21.30
2018-06-03T05:07:17.917Z,21.30
2018-06-03T05:09:46.401Z,21.40
2018-06-03T05:12:14.885Z,21.50
2018-06-03T05:14:43.356Z,21.50
2018-06-03T05:17:11.795Z,21.50
2018-06-03T05:19:40.229Z,21.50
2018-06-03T05:22:08.674Z,21.60
2018-06-03T05:24:37.115Z,21.60
2018-06-03T05:27:05.608Z,21.60
2018-06-03T05:29:34.096Z,21.70
2018-06-03T05:32:02.557Z,21.70
2018-06-03T05:34:31.025Z,21.70
2018-06-03T05:36:59.486Z,21.70
2018-06-03T05:39:27.933Z,21.60
2018-06-03T05:41:56.369Z,21.60
2018-06-03T05:44:24.857Z,21.50
2018-06-03T05:46:53.310Z,21.50
2018-06-03T05:49:21.757Z,21.50
2018-06-03T05:51:50.237Z,21.60
2018-06-03T05:54:18.693Z,21.60
2018-06-03T05:56:47.139Z,21.70
2018-06-03T05:59:15.604Z,21.70
2018-06-03T06:01:44.071Z,21.70
2018-06-03T06:04:12.525Z,21.80
2018-06-03T06:06:41.093Z,21.80
2018-06-03T06:09:09.578Z,21.90
2018-06-03T06:11:38.033Z,21.80
2018-06-03T06:14:06.505Z,21.80
2018-06-03T06:16:34.982Z,21.80
2018-06-03T06:19:03.474Z,21.80
2018-06-03T06:21:31.932Z,21.80
2018-06-03T06:24:00.405Z,21.90
2018-06-03T06:26:28.879Z,21.90
2018-06-03T06:31:25.458Z,22.10
2018-06-03T06:33:53.906Z,22.10
2018-06-03T06:36:22.376Z,22.20
2018-06-03T06:38:50.818Z,22.20
2018-06-03T06:41:19.277Z,22.20
2018-06-03T06:43:47.738Z,22.30
2018-06-03T06:46:16.201Z,22.30
2018-06-03T06:48:44.661Z,22.40
2018-06-03T06:51:13.107Z,22.30
2018-06-03T06:53:41.614Z,22.30
2018-06-03T06:56:10.069Z,22.40
2018-06-03T06:58:38.539Z,22.40
2018-06-03T07:01:07.008Z,22.40
2018-06-03T07:03:35.465Z,22.40
2018-06-03T07:06:03.961Z,22.50
2018-06-03T07:08:32.419Z,22.60
2018-06-03T07:11:00.885Z,22.60
2018-06-03T07:13:29.373Z,22.60
2018-06-03T07:15:57.857Z,22.70
2018-06-03T07:18:26.362Z,22.70
2018-06-03T07:20:54.884Z,22.80
2018-06-03T07:23:23.395Z,22.80
2018-06-03T07:25:51.829Z,22.80
2018-06-03T07:28:20.289Z,22.80
2018-06-03T07:30:48.726Z,22.80
2018-06-03T07:33:17.182Z,22.80
2018-06-03T07:35:45.630Z,22.90
2018-06-03T07:38:14.098Z,23.00
2018-06-03T07:40:42.643Z,23.00
2018-06-03T07:43:11.246Z,23.10
2018-06-03T07:45:39.741Z,23.10
2018-06-03T07:48:08.186Z,23.20
2018-06-03T07:50:36.651Z,23.20
2018-06-03T07:53:05.094Z,23.30
2018-06-03T07:55:33.545Z,23.40
2018-06-03T07:58:02.001Z,23.50
2018-06-03T08:00:30.458Z,23.60
2018-06-03T08:05:27.087Z,23.80
2018-06-03T08:07:55.525Z,23.80
2018-06-03T08:10:23.999Z,23.80
2018-06-03T08:12:52.505Z,23.80
2018-06-03T08:15:20.974Z,23.80
2018-06-03T08:17:49.441Z,23.80
2018-06-03T08:20:17.910Z,23.90
2018-06-03T08:22:46.419Z,23.90
2018-06-03T08:25:14.886Z,24.00
2018-06-03T08:27:43.351Z,24.00
2018-06-03T08:30:11.840Z,24.10
2018-06-03T08:32:40.329Z,24.20
2018-06-03T08:35:08.819Z,24.30
2018-06-03T08:37:37.269Z,24.40
2018-06-03T08:40:05.738Z,24.50
2018-06-03T08:45:02.390Z,24.60
2018-06-03T08:47:30.834Z,24.60
2018-06-03T08:49:59.272Z,24.70
2018-06-03T08:52:27.721Z,24.80
2018-06-03T08:54:56.213Z,24.80
2018-06-03T08:57:24.706Z,24.90
2018-06-03T08:59:53.250Z,24.90
2018-06-03T09:02:21.685Z,25.00
2018-06-03T09:04:50.126Z,25.00
2018-06-03T09:07:18.601Z,25.10
2018-06-03T09:09:47.231Z,25.20
2018-06-03T09:12:15.710Z,25.30
2018-06-03T09:14:44.170Z,25.50
2018-06-03T09:17:12.620Z,25.60
2018-06-03T09:19:41.069Z,25.70
2018-06-03T09:22:09.525Z,25.80
2018-06-03T09:24:37.995Z,25.80
2018-06-03T09:27:06.481Z,25.80
2018-06-03T09:29:34.921Z,25.80
2018-06-03T09:32:03.374Z,25.80
2018-06-03T09:34:31.839Z,25.80
2018-06-03T09:37:00.312Z,25.80
2018-06-03T09:39:28.773Z,25.80
2018-06-03T09:41:57.260Z,25.80
2018-06-03T09:44:25.792Z,26.00
2018-06-03T09:46:54.185Z,26.10
2018-06-03T09:49:22.628Z,26.20
2018-06-03T09:51:51.094Z,26.20
2018-06-03T09:54:19.546Z,26.20
2018-06-03T09:56:48.097Z,26.40
2018-06-03T09:59:16.597Z,26.50
2018-06-03T10:01:45.095Z,26.40
2018-06-03T10:04:13.545Z,26.40
2018-06-03T10:06:42.039Z,26.40
2018-06-03T10:09:10.636Z,26.40
2018-06-03T10:11:39.121Z,26.60
2018-06-03T10:14:07.613Z,26.80
2018-06-03T10:16:36.066Z,27.00
2018-06-03T10:19:04.522Z,27.00
2018-06-03T10:21:33.280Z,27.00
2018-06-03T10:24:01.746Z,26.90
2018-06-03T10:26:30.229Z,26.80
2018-06-03T10:28:58.671Z,26.70
2018-06-03T10:31:28.405Z,26.80
2018-06-03T10:36:25.025Z,27.10
2018-06-03T10:38:53.482Z,27.30
2018-06-03T10:41:22.018Z,27.40
2018-06-03T10:43:50.545Z,27.50
2018-06-03T10:46:18.957Z,27.70
2018-06-03T10:48:47.390Z,27.90
2018-06-03T10:51:15.829Z,28.10
2018-06-03T10:53:44.315Z,28.30
2018-06-03T10:56:12.769Z,28.40
2018-06-03T10:58:41.614Z,28.30
2018-06-03T11:01:10.094Z,28.10
2018-06-03T11:03:38.658Z,27.90
2018-06-03T11:06:07.246Z,27.80
2018-06-03T11:08:35.798Z,27.80
2018-06-03T11:11:04.297Z,27.70
2018-06-03T11:13:32.812Z,27.80
2018-06-03T11:16:01.276Z,27.90
2018-06-03T11:18:29.725Z,27.90
2018-06-03T11:25:35.417Z,28.30
2018-06-03T11:28:03.965Z,28.70
2018-06-03T11:30:32.413Z,28.80
2018-06-03T11:33:00.902Z,28.90
2018-06-03T11:35:29.365Z,29.00
2018-06-03T11:40:25.958Z,29.40
2018-06-03T11:42:54.473Z,29.40
2018-06-03T11:45:22.970Z,29.20
2018-06-03T11:47:51.433Z,29.00
2018-06-03T11:50:20.242Z,29.00
2018-06-03T11:52:48.721Z,29.10
2018-06-03T11:55:17.186Z,29.30
2018-06-03T11:58:55.737Z,29.60
2018-06-03T12:01:25.181Z,29.60
2018-06-03T12:03:53.662Z,29.50
2018-06-03T12:06:22.125Z,29.50
2018-06-03T12:08:50.588Z,29.60
2018-06-03T12:11:19.067Z,29.80
2018-06-03T12:18:43.823Z,30.70
2018-06-03T12:21:12.935Z,30.80
2018-06-03T12:23:41.400Z,31.00
2018-06-03T12:26:09.890Z,31.10
2018-06-03T12:28:38.406Z,31.40
2018-06-03T12:31:06.794Z,31.70
2018-06-03T12:33:35.241Z,31.90
2018-06-03T12:36:03.756Z,31.70
2018-06-03T12:38:32.202Z,31.80
2018-06-03T12:41:00.637Z,32.10
2018-06-03T12:43:29.097Z,32.10
2018-06-03T12:45:57.566Z,32.20
2018-06-03T12:48:26.022Z,32.20
2018-06-03T12:50:54.541Z,32.10
2018-06-03T12:53:23.015Z,32.00
2018-06-03T12:55:51.611Z,32.00
2018-06-03T12:58:20.190Z,31.80
2018-06-03T13:00:48.677Z,31.50
2018-06-03T13:03:17.123Z,31.20
2018-06-03T13:05:45.637Z,30.80
2018-06-03T13:08:14.090Z,30.30
2018-06-03T13:10:42.544Z,30.00
2018-06-03T13:13:10.991Z,29.50
2018-06-03T13:15:39.441Z,29.20
2018-06-03T13:18:07.916Z,29.00
2018-06-03T13:20:36.393Z,28.80
2018-06-03T13:23:04.859Z,28.60
2018-06-03T13:25:33.318Z,28.50
2018-06-03T13:28:01.811Z,28.40
2018-06-03T13:30:30.281Z,28.50
2018-06-03T13:32:58.754Z,28.50
2018-06-03T13:35:27.346Z,28.50
2018-06-03T13:37:55.805Z,28.60
2018-06-03T13:40:24.261Z,29.00
2018-06-03T13:42:52.750Z,29.60
2018-06-03T13:45:21.302Z,30.30
2018-06-03T13:47:49.829Z,30.70
2018-06-03T13:50:18.282Z,31.10
2018-06-03T13:52:46.726Z,31.60
2018-06-03T13:55:15.226Z,31.90
2018-06-03T13:57:43.710Z,32.30
2018-06-03T14:00:12.167Z,32.60
2018-06-03T14:02:40.644Z,32.80
2018-06-03T14:05:09.175Z,32.70
2018-06-03T14:07:37.643Z,32.50
2018-06-03T14:10:06.161Z,32.10
2018-06-03T14:12:34.645Z,31.70
2018-06-03T14:15:03.170Z,31.40
2018-06-03T14:17:31.652Z,31.00
2018-06-03T14:20:00.125Z,30.70
2018-06-03T14:22:28.641Z,30.30
2018-06-03T14:24:57.099Z,29.90
2018-06-03T14:27:25.557Z,29.60
2018-06-03T14:29:54.065Z,29.40
2018-06-03T14:32:22.497Z,29.20
2018-06-03T14:34:50.977Z,29.10
2018-06-03T14:37:19.535Z,29.00
2018-06-03T14:39:47.985Z,28.90
2018-06-03T14:42:16.457Z,28.80
2018-06-03T14:44:44.922Z,28.80
2018-06-03T14:47:13.380Z,28.80
2018-06-03T14:52:10.073Z,28.80
2018-06-03T14:54:38.532Z,28.80
2018-06-03T14:57:07.018Z,28.80
2018-06-03T14:59:35.453Z,28.80
2018-06-03T15:02:03.973Z,28.80
2018-06-03T15:04:32.413Z,28.70
2018-06-03T15:07:00.894Z,28.70
2018-06-03T15:09:29.378Z,28.70
2018-06-03T15:11:57.854Z,28.80
2018-06-03T15:14:26.333Z,28.90
2018-06-03T15:16:54.793Z,29.10
2018-06-03T15:19:23.270Z,29.30
2018-06-03T15:21:51.767Z,29.40
2018-06-03T15:24:20.221Z,29.50
2018-06-03T15:26:48.714Z,29.60
2018-06-03T15:29:17.184Z,29.80
2018-06-03T15:31:45.645Z,30.00
2018-06-03T15:36:42.282Z,30.30
2018-06-03T15:39:10.765Z,30.40
2018-06-03T15:41:39.213Z,30.60
2018-06-03T15:44:07.718Z,30.70
2018-06-03T15:46:36.166Z,30.80
2018-06-03T15:49:04.722Z,30.80
2018-06-03T15:51:33.251Z,30.80
2018-06-03T15:54:01.654Z,30.80
2018-06-03T15:56:30.136Z,30.80
2018-06-03T15:58:58.594Z,30.70
2018-06-03T16:01:27.072Z,30.80
2018-06-03T16:03:55.545Z,30.90
2018-06-03T16:06:24.022Z,31.00
2018-06-03T16:08:52.465Z,31.00
2018-06-03T16:11:20.949Z,31.00
2018-06-03T16:13:49.448Z,31.10
2018-06-03T16:16:17.970Z,31.30
2018-06-03T16:18:46.434Z,31.50
2018-06-03T16:21:14.894Z,31.50
2018-06-03T16:23:43.422Z,31.50
2018-06-03T16:26:11.882Z,31.20
2018-06-03T16:28:40.378Z,31.00
2018-06-03T16:31:08.831Z,30.80
2018-06-03T16:33:37.317Z,30.70
2018-06-03T16:36:05.797Z,30.50
2018-06-03T16:38:34.265Z,30.30
2018-06-03T16:41:02.725Z,30.20
2018-06-03T16:43:31.197Z,30.00
2018-06-03T16:45:59.618Z,29.70
2018-06-03T16:48:28.061Z,30.60
2018-06-03T16:50:56.514Z,33.10
2018-06-03T16:53:24.998Z,35.30
2018-06-03T16:55:53.477Z,41.90
2018-06-03T16:58:21.936Z,44.10
2018-06-03T17:00:50.940Z,47.10
2018-06-03T17:03:19.397Z,47.50
2018-06-03T17:05:47.853Z,48.60
2018-06-03T17:08:16.310Z,48.00
2018-06-03T17:10:44.763Z,46.00
2018-06-03T17:13:13.255Z,44.10
2018-06-03T17:15:41.698Z,42.50
2018-06-03T17:18:10.142Z,40.90
2018-06-03T17:20:38.609Z,39.20
2018-06-03T17:23:07.078Z,37.80
2018-06-03T17:25:35.544Z,36.80
2018-06-03T17:28:04.003Z,35.90
2018-06-03T17:30:32.466Z,35.80
2018-06-03T17:33:00.989Z,36.50
2018-06-03T17:35:29.466Z,41.30
2018-06-03T17:37:57.919Z,43.40
2018-06-03T17:40:26.443Z,46.00
2018-06-03T17:42:54.875Z,50.00
2018-06-03T17:45:23.330Z,50.20
2018-06-03T17:47:51.805Z,52.40
2018-06-03T17:50:20.273Z,53.70
2018-06-03T17:52:48.757Z,51.40
2018-06-03T17:55:17.249Z,48.90
2018-06-03T18:00:13.869Z,43.80
2018-06-03T18:02:42.357Z,41.80
2018-06-03T18:05:10.798Z,39.90
2018-06-03T18:07:39.266Z,38.60
2018-06-03T18:10:07.729Z,37.20
2018-06-03T18:12:36.178Z,36.20
2018-06-03T18:15:04.676Z,35.30
2018-06-03T18:17:33.137Z,34.60
2018-06-03T18:20:01.580Z,33.80
2018-06-03T18:22:30.062Z,33.10
2018-06-03T18:24:58.526Z,32.40
2018-06-03T18:27:26.994Z,31.90
2018-06-03T18:29:55.465Z,31.30
2018-06-03T18:32:23.951Z,30.80
2018-06-03T18:34:52.477Z,30.40
2018-06-03T18:37:20.997Z,29.90
2018-06-03T18:39:49.442Z,29.50
2018-06-03T18:42:17.904Z,29.20
2018-06-03T18:44:46.349Z,28.80
2018-06-03T18:47:14.814Z,28.40
2018-06-03T18:49:43.252Z,28.10
2018-06-03T18:52:11.693Z,27.90
2018-06-03T18:54:40.193Z,27.70
2018-06-03T18:57:08.653Z,27.50
2018-06-03T18:59:37.110Z,27.20
2018-06-03T19:02:05.705Z,27.00
2018-06-03T19:04:34.177Z,26.80
2018-06-03T19:07:02.657Z,26.70
2018-06-03T19:09:31.105Z,26.50
2018-06-03T19:11:59.605Z,26.40
2018-06-03T19:14:28.077Z,26.30
2018-06-03T19:16:56.606Z,26.20
2018-06-03T19:19:25.162Z,26.10
2018-06-03T19:21:53.569Z,26.00
2018-06-03T19:24:22.021Z,25.90
2018-06-03T19:26:50.489Z,25.80
2018-06-03T19:29:18.929Z,25.70
2018-06-03T19:31:47.380Z,25.60
2018-06-03T19:34:15.842Z,25.50
2018-06-03T19:36:44.437Z,25.40
2018-06-03T19:39:12.866Z,25.40
2018-06-03T19:41:41.321Z,25.30
2018-06-03T19:44:09.783Z,25.20
2018-06-03T19:46:38.334Z,25.10
2018-06-03T19:49:06.794Z,25.00
2018-06-03T19:51:35.282Z,24.90
2018-06-03T19:54:03.778Z,24.90
2018-06-03T19:56:32.230Z,24.80
2018-06-03T19:59:00.665Z,24.70
2018-06-03T20:10:44.861Z,24.30
2018-06-03T20:13:13.326Z,24.20
2018-06-03T20:15:41.841Z,24.10
2018-06-03T20:18:10.311Z,24.00
2018-06-03T20:20:38.755Z,23.90
2018-06-03T20:24:10.454Z,23.80
2018-06-03T20:26:38.925Z,23.70
2018-06-03T20:29:07.442Z,23.70
2018-06-03T20:31:35.949Z,23.60
2018-06-03T20:34:04.446Z,23.50
2018-06-03T20:36:32.921Z,23.40
2018-06-03T20:39:01.370Z,23.40
2018-06-03T20:43:57.955Z,23.30
2018-06-03T20:46:26.397Z,23.30
2018-06-03T20:48:54.881Z,23.20
2018-06-03T20:51:23.322Z,23.20
2018-06-03T20:53:51.849Z,23.10
2018-06-03T20:56:20.281Z,23.10
2018-06-03T20:58:48.764Z,23.10
2018-06-03T21:01:17.222Z,23.00
2018-06-03T21:03:45.653Z,22.90
2018-06-03T21:06:14.101Z,22.90
2018-06-03T21:08:42.558Z,22.80
2018-06-03T21:11:11.035Z,22.80
2018-06-03T21:13:39.550Z,22.80
2018-06-03T21:16:08.051Z,22.70
2018-06-03T21:18:36.509Z,22.60
2018-06-03T21:21:05.058Z,22.60
2018-06-03T21:26:01.691Z,22.50
2018-06-03T21:28:30.125Z,22.40
2018-06-03T21:30:58.610Z,22.40
2018-06-03T21:33:27.076Z,22.30
2018-06-03T21:35:55.526Z,22.20
2018-06-03T21:38:23.987Z,22.20
2018-06-03T21:40:52.437Z,22.20
2018-06-03T21:43:21.090Z,22.10
2018-06-03T21:45:49.601Z,22.10
2018-06-03T21:48:18.042Z,22.10
2018-06-03T21:50:46.521Z,22.10
2018-06-03T21:53:14.982Z,22.00
2018-06-03T21:55:43.442Z,21.90
2018-06-03T21:58:12.005Z,21.90
2018-06-03T22:00:40.466Z,21.80
2018-06-03T22:03:08.912Z,21.80
2018-06-03T22:05:37.369Z,21.70
2018-06-03T22:08:05.969Z,21.70
2018-06-03T22:10:34.429Z,21.70
2018-06-03T22:13:02.886Z,21.70
2018-06-03T22:15:31.393Z,21.60
2018-06-03T22:18:00.133Z,21.60
2018-06-03T22:22:56.819Z,21.50
2018-06-03T22:25:25.293Z,21.50
2018-06-03T22:27:53.730Z,21.50
2018-06-03T22:30:22.181Z,21.40
2018-06-03T22:32:50.837Z,21.40
2018-06-03T22:35:19.397Z,21.30
2018-06-03T22:40:15.970Z,21.20
2018-06-03T22:42:44.434Z,21.20
2018-06-03T22:45:12.889Z,21.10
2018-06-03T22:47:41.349Z,21.10
2018-06-03T22:50:09.816Z,21.10
2018-06-03T22:52:38.294Z,21.00
2018-06-03T22:55:06.745Z,21.00
2018-06-03T22:57:46.885Z,21.00
2018-06-03T23:00:23.106Z,21.00
2018-06-03T23:02:57.763Z,21.00
2018-06-03T23:05:26.251Z,21.00
2018-06-03T23:07:54.934Z,20.90
2018-06-03T23:15:19.759Z,20.80
2018-06-03T23:17:48.205Z,20.80
2018-06-03T23:20:16.642Z,20.80
2018-06-03T23:22:45.106Z,20.80
2018-06-03T23:25:13.557Z,20.80
2018-06-03T23:27:42.022Z,20.80
2018-06-03T23:30:10.494Z,20.80
2018-06-03T23:32:38.950Z,20.80
2018-06-03T23:35:07.447Z,20.70
2018-06-03T23:37:35.885Z,20.70
2018-06-03T23:40:04.799Z,20.70
2018-06-03T23:42:33.353Z,20.70
2018-06-03T23:45:01.818Z,20.60
2018-06-03T23:47:30.269Z,20.70
2018-06-03T23:53:30.763Z,20.60
2018-06-03T23:55:59.217Z,20.60
2018-06-03T23:58:27.677Z,20.50
